CheckWX is a tool to help pilots better visualize weather data.  It is not intended as a substitute for an official pre-flight weather briefing.

20:34:48 UTC

KLRY METAR
Lawrence Smith Memorial Airport
Harrisonville, Missouri, USA
Current

20 mins ago

KLRY 232015Z AUTO 07005KT 10SM -RA OVC017 13/10 A3008 RMK AO2
Observed
Apr-23 @ 20:15 UTC
Wind
  • 070° at 5 KTS
Visibility
10 SM
Flight Rules
MVFR
Conditions
Light Rain
Cloud Levels
  • Overcast at 1,700' AGL
Temperature
13°C / 55°F
Dewpoint
10°C / 50°F
Humidity
82%
Altimeter
30.08" Hg
Pressure
1018.62 hPa
Previous

40 mins ago

KLRY 231955Z AUTO 00000KT 10SM OVC017 13/09 A3009 RMK AO2
Observed
Apr-23 @ 19:55 UTC
Visibility
10 SM
Flight Rules
MVFR
Cloud Levels
  • Overcast at 1,700' AGL
Temperature
13°C / 55°F
Dewpoint
C / 48°F
Humidity
77%
Altimeter
30.09" Hg
Pressure
1018.92 hPa
Previous

60 mins ago

KLRY 231935Z AUTO 00000KT 10SM OVC017 13/09 A3011 RMK AO2
Observed
Apr-23 @ 19:35 UTC
Visibility
10 SM
Flight Rules
MVFR
Cloud Levels
  • Overcast at 1,700' AGL
Temperature
13°C / 55°F
Dewpoint
C / 48°F
Humidity
77%
Altimeter
30.11" Hg
Pressure
1019.62 hPa